sensor_id;sensor_type;location;lat;lon;timestamp;P1;durP1;ratioP1;P2;durP2;ratioP2
14892;SDS011;7538;53.626;9.906;2023-08-01T00:01:16;5.65;;;5.05;;
14892;SDS011;7538;53.626;9.906;2023-08-01T00:03:43;7.95;;;5.60;;
14892;SDS011;7538;53.626;9.906;2023-08-01T00:06:10;5.85;;;5.18;;
14892;SDS011;7538;53.626;9.906;2023-08-01T00:08:37;9.48;;;6.15;;
14892;SDS011;7538;53.626;9.906;2023-08-01T00:11:05;6.97;;;5.90;;
14892;SDS011;7538;53.626;9.906;2023-08-01T00:13:32;6.60;;;5.15;;
14892;SDS011;7538;53.626;9.906;2023-08-01T00:15:59;8.50;;;6.13;;
14892;SDS011;7538;53.626;9.906;2023-08-01T00:18:26;5.18;;;4.68;;
14892;SDS011;7538;53.626;9.906;2023-08-01T00:20:52;5.28;;;4.35;;
14892;SDS011;7538;53.626;9.906;2023-08-01T00:23:20;5.18;;;4.32;;
14892;SDS011;7538;53.626;9.906;2023-08-01T00:25:47;4.45;;;3.90;;
14892;SDS011;7538;53.626;9.906;2023-08-01T00:28:17;7.50;;;5.40;;
14892;SDS011;7538;53.626;9.906;2023-08-01T00:30:44;4.03;;;3.63;;
14892;SDS011;7538;53.626;9.906;2023-08-01T00:33:11;4.85;;;3.78;;
14892;SDS011;7538;53.626;9.906;2023-08-01T00:35:38;6.43;;;4.22;;
14892;SDS011;7538;53.626;9.906;2023-08-01T00:38:05;5.00;;;3.63;;
14892;SDS011;7538;53.626;9.906;2023-08-01T00:40:32;5.35;;;3.53;;
14892;SDS011;7538;53.626;9.906;2023-08-01T00:42:59;4.55;;;4.00;;
14892;SDS011;7538;53.626;9.906;2023-08-01T00:45:28;8.60;;;4.03;;
14892;SDS011;7538;53.626;9.906;2023-08-01T00:47:56;5.50;;;4.00;;
14892;SDS011;7538;53.626;9.906;2023-08-01T00:50:23;5.18;;;4.13;;
14892;SDS011;7538;53.626;9.906;2023-08-01T00:52:50;4.53;;;3.70;;
14892;SDS011;7538;53.626;9.906;2023-08-01T00:55:18;5.00;;;3.55;;
14892;SDS011;7538;53.626;9.906;2023-08-01T00:57:47;6.07;;;3.90;;
14892;SDS011;7538;53.626;9.906;2023-08-01T01:02:51;5.82;;;4.13;;
14892;SDS011;7538;53.626;9.906;2023-08-01T01:05:18;6.00;;;4.00;;
14892;SDS011;7538;53.626;9.906;2023-08-01T01:07:46;4.88;;;3.95;;
14892;SDS011;7538;53.626;9.906;2023-08-01T01:10:15;8.70;;;4.72;;
14892;SDS011;7538;53.626;9.906;2023-08-01T01:12:41;8.68;;;4.78;;
14892;SDS011;7538;53.626;9.906;2023-08-01T01:15:07;5.97;;;4.30;;
14892;SDS011;7538;53.626;9.906;2023-08-01T01:17:35;10.02;;;5.90;;
14892;SDS011;7538;53.626;9.906;2023-08-01T01:20:03;12.13;;;6.00;;
14892;SDS011;7538;53.626;9.906;2023-08-01T01:22:32;6.75;;;4.93;;
14892;SDS011;7538;53.626;9.906;2023-08-01T01:24:59;9.75;;;6.18;;
14892;SDS011;7538;53.626;9.906;2023-08-01T01:27:27;8.80;;;5.28;;
14892;SDS011;7538;53.626;9.906;2023-08-01T01:29:55;8.13;;;6.40;;
14892;SDS011;7538;53.626;9.906;2023-08-01T01:32:23;14.40;;;7.75;;
14892;SDS011;7538;53.626;9.906;2023-08-01T01:34:50;10.95;;;7.63;;
14892;SDS011;7538;53.626;9.906;2023-08-01T01:37:18;18.48;;;9.07;;
14892;SDS011;7538;53.626;9.906;2023-08-01T01:44:48;12.80;;;7.95;;
14892;SDS011;7538;53.626;9.906;2023-08-01T01:47:14;18.95;;;10.80;;
14892;SDS011;7538;53.626;9.906;2023-08-01T01:49:41;19.77;;;10.77;;
14892;SDS011;7538;53.626;9.906;2023-08-01T01:52:08;12.38;;;8.38;;
14892;SDS011;7538;53.626;9.906;2023-08-01T01:54:35;12.63;;;9.18;;
14892;SDS011;7538;53.626;9.906;2023-08-01T01:57:01;27.83;;;12.77;;
14892;SDS011;7538;53.626;9.906;2023-08-01T01:59:28;22.08;;;12.35;;
14892;SDS011;7538;53.626;9.906;2023-08-01T02:01:56;14.70;;;9.45;;
14892;SDS011;7538;53.626;9.906;2023-08-01T02:04:24;25.02;;;12.88;;
14892;SDS011;7538;53.626;9.906;2023-08-01T02:06:51;24.20;;;11.88;;
14892;SDS011;7538;53.626;9.906;2023-08-01T02:09:19;32.28;;;14.18;;
14892;SDS011;7538;53.626;9.906;2023-08-01T02:11:46;29.77;;;14.77;;
14892;SDS011;7538;53.626;9.906;2023-08-01T02:14:13;25.83;;;13.90;;
14892;SDS011;7538;53.626;9.906;2023-08-01T02:25:15;19.58;;;13.20;;
14892;SDS011;7538;53.626;9.906;2023-08-01T02:27:42;19.67;;;12.40;;
14892;SDS011;7538;53.626;9.906;2023-08-01T02:30:09;38.47;;;18.25;;
14892;SDS011;7538;53.626;9.906;2023-08-01T02:32:37;28.23;;;16.73;;
14892;SDS011;7538;53.626;9.906;2023-08-01T02:37:53;27.02;;;14.82;;
14892;SDS011;7538;53.626;9.906;2023-08-01T02:40:21;28.33;;;17.45;;
14892;SDS011;7538;53.626;9.906;2023-08-01T02:42:48;29.73;;;17.45;;
14892;SDS011;7538;53.626;9.906;2023-08-01T02:54:36;31.80;;;17.30;;
14892;SDS011;7538;53.626;9.906;2023-08-01T02:57:09;30.60;;;18.60;;
14892;SDS011;7538;53.626;9.906;2023-08-01T02:59:36;40.42;;;20.30;;
14892;SDS011;7538;53.626;9.906;2023-08-01T03:02:03;24.90;;;17.15;;
14892;SDS011;7538;53.626;9.906;2023-08-01T03:04:30;62.15;;;24.35;;
14892;SDS011;7538;53.626;9.906;2023-08-01T03:06:57;34.45;;;19.50;;
14892;SDS011;7538;53.626;9.906;2023-08-01T03:09:24;46.47;;;21.85;;
14892;SDS011;7538;53.626;9.906;2023-08-01T03:15:14;46.58;;;21.60;;
14892;SDS011;7538;53.626;9.906;2023-08-01T03:17:41;54.10;;;25.20;;
14892;SDS011;7538;53.626;9.906;2023-08-01T03:20:07;38.20;;;21.20;;
14892;SDS011;7538;53.626;9.906;2023-08-01T03:22:36;27.35;;;18.98;;
14892;SDS011;7538;53.626;9.906;2023-08-01T03:25:03;61.67;;;25.67;;
14892;SDS011;7538;53.626;9.906;2023-08-01T03:27:32;61.25;;;26.95;;
14892;SDS011;7538;53.626;9.906;2023-08-01T03:29:59;48.78;;;24.23;;
14892;SDS011;7538;53.626;9.906;2023-08-01T03:32:27;54.63;;;24.40;;
14892;SDS011;7538;53.626;9.906;2023-08-01T03:34:54;48.88;;;23.77;;
14892;SDS011;7538;53.626;9.906;2023-08-01T03:37:21;45.92;;;24.65;;
14892;SDS011;7538;53.626;9.906;2023-08-01T03:39:48;44.67;;;22.92;;
14892;SDS011;7538;53.626;9.906;2023-08-01T03:42:14;35.30;;;20.60;;
14892;SDS011;7538;53.626;9.906;2023-08-01T03:44:41;40.33;;;21.63;;
14892;SDS011;7538;53.626;9.906;2023-08-01T03:47:08;39.53;;;21.58;;
14892;SDS011;7538;53.626;9.906;2023-08-01T03:49:36;48.85;;;23.45;;
14892;SDS011;7538;53.626;9.906;2023-08-01T03:52:04;44.20;;;23.08;;
14892;SDS011;7538;53.626;9.906;2023-08-01T03:57:22;53.63;;;27.20;;
14892;SDS011;7538;53.626;9.906;2023-08-01T03:59:49;39.97;;;23.75;;
14892;SDS011;7538;53.626;9.906;2023-08-01T04:02:16;46.72;;;24.17;;
14892;SDS011;7538;53.626;9.906;2023-08-01T04:04:45;42.03;;;23.48;;
14892;SDS011;7538;53.626;9.906;2023-08-01T04:07:12;69.10;;;28.25;;
14892;SDS011;7538;53.626;9.906;2023-08-01T04:09:38;34.63;;;21.20;;
14892;SDS011;7538;53.626;9.906;2023-08-01T04:12:05;36.58;;;22.38;;
14892;SDS011;7538;53.626;9.906;2023-08-01T04:14:32;44.47;;;24.92;;
14892;SDS011;7538;53.626;9.906;2023-08-01T04:16:59;38.60;;;22.73;;
14892;SDS011;7538;53.626;9.906;2023-08-01T04:19:26;49.78;;;23.85;;
14892;SDS011;7538;53.626;9.906;2023-08-01T04:21:54;33.42;;;21.08;;
14892;SDS011;7538;53.626;9.906;2023-08-01T04:24:21;34.80;;;21.48;;
14892;SDS011;7538;53.626;9.906;2023-08-01T04:26:50;51.92;;;24.45;;
14892;SDS011;7538;53.626;9.906;2023-08-01T04:29:17;47.33;;;23.27;;
14892;SDS011;7538;53.626;9.906;2023-08-01T04:31:44;35.13;;;22.02;;
14892;SDS011;7538;53.626;9.906;2023-08-01T04:34:10;38.88;;;22.02;;
14892;SDS011;7538;53.626;9.906;2023-08-01T04:36:37;36.50;;;21.23;;
14892;SDS011;7538;53.626;9.906;2023-08-01T04:39:05;44.15;;;23.95;;
14892;SDS011;7538;53.626;9.906;2023-08-01T04:41:32;37.70;;;21.00;;
14892;SDS011;7538;53.626;9.906;2023-08-01T04:43:59;55.70;;;24.70;;
14892;SDS011;7538;53.626;9.906;2023-08-01T04:46:25;60.03;;;25.50;;
14892;SDS011;7538;53.626;9.906;2023-08-01T04:48:52;41.35;;;21.00;;
14892;SDS011;7538;53.626;9.906;2023-08-01T04:51:21;35.33;;;20.52;;
14892;SDS011;7538;53.626;9.906;2023-08-01T04:53:48;35.63;;;22.08;;
14892;SDS011;7538;53.626;9.906;2023-08-01T04:56:16;46.63;;;22.52;;
14892;SDS011;7538;53.626;9.906;2023-08-01T04:58:43;41.08;;;23.30;;
14892;SDS011;7538;53.626;9.906;2023-08-01T05:01:10;52.60;;;25.40;;
14892;SDS011;7538;53.626;9.906;2023-08-01T05:03:37;61.78;;;25.52;;
14892;SDS011;7538;53.626;9.906;2023-08-01T05:06:03;30.63;;;19.60;;
14892;SDS011;7538;53.626;9.906;2023-08-01T05:08:30;34.28;;;20.48;;
14892;SDS011;7538;53.626;9.906;2023-08-01T05:10:57;39.35;;;20.55;;
14892;SDS011;7538;53.626;9.906;2023-08-01T05:13:25;36.17;;;20.92;;
14892;SDS011;7538;53.626;9.906;2023-08-01T05:15:52;41.03;;;21.73;;
14892;SDS011;7538;53.626;9.906;2023-08-01T05:18:18;46.92;;;23.00;;
14892;SDS011;7538;53.626;9.906;2023-08-01T05:20:45;31.27;;;20.48;;
14892;SDS011;7538;53.626;9.906;2023-08-01T05:23:12;42.63;;;21.38;;
14892;SDS011;7538;53.626;9.906;2023-08-01T05:25:39;40.15;;;21.58;;
14892;SDS011;7538;53.626;9.906;2023-08-01T05:28:06;35.90;;;19.83;;
14892;SDS011;7538;53.626;9.906;2023-08-01T05:30:34;37.47;;;19.77;;
14892;SDS011;7538;53.626;9.906;2023-08-01T05:33:00;29.33;;;17.27;;
14892;SDS011;7538;53.626;9.906;2023-08-01T05:35:27;33.10;;;19.02;;
14892;SDS011;7538;53.626;9.906;2023-08-01T05:37:54;36.83;;;18.52;;
14892;SDS011;7538;53.626;9.906;2023-08-01T05:40:21;37.58;;;20.08;;
14892;SDS011;7538;53.626;9.906;2023-08-01T05:42:47;43.20;;;20.80;;
14892;SDS011;7538;53.626;9.906;2023-08-01T05:45:14;26.17;;;17.10;;
14892;SDS011;7538;53.626;9.906;2023-08-01T05:47:42;40.25;;;21.50;;
14892;SDS011;7538;53.626;9.906;2023-08-01T05:50:10;29.33;;;17.27;;
14892;SDS011;7538;53.626;9.906;2023-08-01T05:52:37;25.27;;;17.88;;
14892;SDS011;7538;53.626;9.906;2023-08-01T05:55:07;33.03;;;18.35;;
14892;SDS011;7538;53.626;9.906;2023-08-01T05:58:09;28.30;;;17.98;;
14892;SDS011;7538;53.626;9.906;2023-08-01T06:00:35;24.02;;;16.25;;
14892;SDS011;7538;53.626;9.906;2023-08-01T06:03:04;25.65;;;16.88;;
14892;SDS011;7538;53.626;9.906;2023-08-01T06:05:31;21.38;;;14.45;;
14892;SDS011;7538;53.626;9.906;2023-08-01T06:08:08;31.83;;;17.13;;
14892;SDS011;7538;53.626;9.906;2023-08-01T06:10:37;26.70;;;15.77;;
14892;SDS011;7538;53.626;9.906;2023-08-01T06:13:04;32.70;;;17.60;;
14892;SDS011;7538;53.626;9.906;2023-08-01T06:15:30;32.20;;;17.90;;
14892;SDS011;7538;53.626;9.906;2023-08-01T06:17:57;25.17;;;16.95;;
14892;SDS011;7538;53.626;9.906;2023-08-01T06:20:25;24.15;;;16.38;;
14892;SDS011;7538;53.626;9.906;2023-08-01T06:22:52;23.23;;;15.85;;
14892;SDS011;7538;53.626;9.906;2023-08-01T06:25:19;18.92;;;14.02;;
14892;SDS011;7538;53.626;9.906;2023-08-01T06:27:46;22.40;;;14.15;;
14892;SDS011;7538;53.626;9.906;2023-08-01T06:30:12;17.65;;;12.85;;
14892;SDS011;7538;53.626;9.906;2023-08-01T06:32:39;15.90;;;11.57;;
14892;SDS011;7538;53.626;9.906;2023-08-01T06:35:06;15.93;;;10.98;;
14892;SDS011;7538;53.626;9.906;2023-08-01T06:37:35;15.13;;;10.88;;
14892;SDS011;7538;53.626;9.906;2023-08-01T06:40:02;15.65;;;10.18;;
14892;SDS011;7538;53.626;9.906;2023-08-01T06:42:29;18.30;;;11.52;;
14892;SDS011;7538;53.626;9.906;2023-08-01T06:44:56;15.90;;;10.95;;
14892;SDS011;7538;53.626;9.906;2023-08-01T06:47:23;17.50;;;10.73;;
14892;SDS011;7538;53.626;9.906;2023-08-01T06:52:38;15.57;;;9.95;;
14892;SDS011;7538;53.626;9.906;2023-08-01T06:55:05;15.93;;;10.30;;
14892;SDS011;7538;53.626;9.906;2023-08-01T06:57:32;19.08;;;11.13;;
14892;SDS011;7538;53.626;9.906;2023-08-01T06:59:59;21.88;;;12.13;;
14892;SDS011;7538;53.626;9.906;2023-08-01T07:02:26;22.38;;;11.85;;
14892;SDS011;7538;53.626;9.906;2023-08-01T07:04:53;21.33;;;12.75;;
14892;SDS011;7538;53.626;9.906;2023-08-01T07:07:20;20.85;;;12.57;;
14892;SDS011;7538;53.626;9.906;2023-08-01T07:09:48;15.15;;;9.90;;
14892;SDS011;7538;53.626;9.906;2023-08-01T07:12:15;12.38;;;8.95;;
14892;SDS011;7538;53.626;9.906;2023-08-01T07:14:41;17.08;;;10.13;;
14892;SDS011;7538;53.626;9.906;2023-08-01T07:17:08;14.10;;;9.13;;
14892;SDS011;7538;53.626;9.906;2023-08-01T07:19:35;15.60;;;9.43;;
14892;SDS011;7538;53.626;9.906;2023-08-01T07:22:02;15.43;;;9.20;;
14892;SDS011;7538;53.626;9.906;2023-08-01T07:24:29;14.10;;;9.82;;
14892;SDS011;7538;53.626;9.906;2023-08-01T07:26:57;12.93;;;9.38;;
14892;SDS011;7538;53.626;9.906;2023-08-01T07:29:24;12.85;;;8.18;;
14892;SDS011;7538;53.626;9.906;2023-08-01T07:31:51;10.60;;;7.05;;
14892;SDS011;7538;53.626;9.906;2023-08-01T07:34:17;11.50;;;7.13;;
14892;SDS011;7538;53.626;9.906;2023-08-01T07:36:45;14.82;;;7.63;;
14892;SDS011;7538;53.626;9.906;2023-08-01T07:39:14;12.95;;;7.47;;
14892;SDS011;7538;53.626;9.906;2023-08-01T07:41:41;14.35;;;8.00;;
14892;SDS011;7538;53.626;9.906;2023-08-01T07:44:09;8.48;;;7.38;;
14892;SDS011;7538;53.626;9.906;2023-08-01T07:46:36;14.02;;;7.95;;
14892;SDS011;7538;53.626;9.906;2023-08-01T07:49:03;10.40;;;6.28;;
14892;SDS011;7538;53.626;9.906;2023-08-01T07:51:29;9.40;;;5.55;;
14892;SDS011;7538;53.626;9.906;2023-08-01T07:53:58;9.25;;;5.15;;
14892;SDS011;7538;53.626;9.906;2023-08-01T07:56:25;8.15;;;5.35;;
14892;SDS011;7538;53.626;9.906;2023-08-01T07:58:52;8.50;;;5.00;;
14892;SDS011;7538;53.626;9.906;2023-08-01T08:01:20;9.38;;;4.95;;
14892;SDS011;7538;53.626;9.906;2023-08-01T08:03:47;9.43;;;5.30;;
14892;SDS011;7538;53.626;9.906;2023-08-01T08:06:14;7.10;;;5.35;;
14892;SDS011;7538;53.626;9.906;2023-08-01T08:08:41;10.57;;;5.03;;
14892;SDS011;7538;53.626;9.906;2023-08-01T08:11:07;9.52;;;4.60;;
14892;SDS011;7538;53.626;9.906;2023-08-01T08:13:34;7.97;;;4.20;;
14892;SDS011;7538;53.626;9.906;2023-08-01T08:16:01;5.90;;;3.85;;
14892;SDS011;7538;53.626;9.906;2023-08-01T08:18:31;5.63;;;4.15;;
14892;SDS011;7538;53.626;9.906;2023-08-01T08:20:57;9.63;;;4.22;;
14892;SDS011;7538;53.626;9.906;2023-08-01T08:23:26;6.00;;;3.95;;
14892;SDS011;7538;53.626;9.906;2023-08-01T08:25:56;8.50;;;3.97;;
14892;SDS011;7538;53.626;9.906;2023-08-01T08:28:30;5.82;;;3.60;;
14892;SDS011;7538;53.626;9.906;2023-08-01T08:31:01;6.15;;;3.92;;
14892;SDS011;7538;53.626;9.906;2023-08-01T08:33:37;5.78;;;3.90;;
14892;SDS011;7538;53.626;9.906;2023-08-01T08:36:08;6.47;;;3.92;;
14892;SDS011;7538;53.626;9.906;2023-08-01T08:38:41;9.20;;;4.55;;
14892;SDS011;7538;53.626;9.906;2023-08-01T08:41:17;7.05;;;4.20;;
14892;SDS011;7538;53.626;9.906;2023-08-01T08:43:53;9.52;;;4.35;;
14892;SDS011;7538;53.626;9.906;2023-08-01T08:46:23;7.20;;;3.55;;
14892;SDS011;7538;53.626;9.906;2023-08-01T08:48:57;6.28;;;4.20;;
14892;SDS011;7538;53.626;9.906;2023-08-01T08:54:57;6.13;;;4.22;;
14892;SDS011;7538;53.626;9.906;2023-08-01T08:57:30;7.35;;;4.30;;
14892;SDS011;7538;53.626;9.906;2023-08-01T09:00:06;6.32;;;4.88;;
14892;SDS011;7538;53.626;9.906;2023-08-01T09:02:37;8.05;;;5.38;;
14892;SDS011;7538;53.626;9.906;2023-08-01T09:05:15;9.68;;;5.13;;
14892;SDS011;7538;53.626;9.906;2023-08-01T09:07:49;5.68;;;3.92;;
14892;SDS011;7538;53.626;9.906;2023-08-01T09:10:21;5.57;;;3.30;;
14892;SDS011;7538;53.626;9.906;2023-08-01T09:12:50;5.82;;;3.05;;
14892;SDS011;7538;53.626;9.906;2023-08-01T09:15:23;4.65;;;2.92;;
14892;SDS011;7538;53.626;9.906;2023-08-01T09:17:54;6.15;;;3.05;;
14892;SDS011;7538;53.626;9.906;2023-08-01T09:20:27;4.32;;;3.35;;
14892;SDS011;7538;53.626;9.906;2023-08-01T09:26:13;5.80;;;3.10;;
14892;SDS011;7538;53.626;9.906;2023-08-01T09:28:40;4.55;;;3.05;;
14892;SDS011;7538;53.626;9.906;2023-08-01T09:31:07;4.72;;;3.30;;
14892;SDS011;7538;53.626;9.906;2023-08-01T09:33:39;3.20;;;2.90;;
14892;SDS011;7538;53.626;9.906;2023-08-01T09:36:08;4.03;;;2.60;;
14892;SDS011;7538;53.626;9.906;2023-08-01T09:38:35;4.53;;;2.47;;
14892;SDS011;7538;53.626;9.906;2023-08-01T09:41:03;4.85;;;2.75;;
14892;SDS011;7538;53.626;9.906;2023-08-01T09:47:10;2.95;;;2.65;;
14892;SDS011;7538;53.626;9.906;2023-08-01T09:49:46;3.47;;;2.10;;
14892;SDS011;7538;53.626;9.906;2023-08-01T09:52:25;3.65;;;2.38;;
14892;SDS011;7538;53.626;9.906;2023-08-01T09:54:52;3.65;;;2.35;;
14892;SDS011;7538;53.626;9.906;2023-08-01T09:57:19;2.47;;;2.10;;
14892;SDS011;7538;53.626;9.906;2023-08-01T09:59:48;3.78;;;2.13;;
14892;SDS011;7538;53.626;9.906;2023-08-01T10:02:16;3.60;;;2.90;;
14892;SDS011;7538;53.626;9.906;2023-08-01T10:04:46;3.67;;;2.00;;
14892;SDS011;7538;53.626;9.906;2023-08-01T10:07:14;3.20;;;1.95;;
14892;SDS011;7538;53.626;9.906;2023-08-01T10:09:49;3.58;;;2.20;;
14892;SDS011;7538;53.626;9.906;2023-08-01T10:12:17;3.97;;;2.20;;
14892;SDS011;7538;53.626;9.906;2023-08-01T10:14:44;2.83;;;2.00;;
14892;SDS011;7538;53.626;9.906;2023-08-01T10:17:11;3.90;;;2.13;;
14892;SDS011;7538;53.626;9.906;2023-08-01T10:19:39;2.10;;;1.70;;
14892;SDS011;7538;53.626;9.906;2023-08-01T10:22:07;4.28;;;2.13;;
14892;SDS011;7538;53.626;9.906;2023-08-01T10:24:37;4.47;;;1.85;;
14892;SDS011;7538;53.626;9.906;2023-08-01T10:27:11;2.92;;;1.70;;
14892;SDS011;7538;53.626;9.906;2023-08-01T10:29:38;4.50;;;1.63;;
14892;SDS011;7538;53.626;9.906;2023-08-01T10:32:06;3.33;;;1.60;;
14892;SDS011;7538;53.626;9.906;2023-08-01T10:34:33;2.67;;;1.38;;
14892;SDS011;7538;53.626;9.906;2023-08-01T10:37:00;3.10;;;1.60;;
14892;SDS011;7538;53.626;9.906;2023-08-01T10:39:27;2.33;;;1.50;;
14892;SDS011;7538;53.626;9.906;2023-08-01T10:41:58;3.33;;;1.55;;
14892;SDS011;7538;53.626;9.906;2023-08-01T10:44:25;3.50;;;1.80;;
14892;SDS011;7538;53.626;9.906;2023-08-01T10:46:53;2.20;;;1.40;;
14892;SDS011;7538;53.626;9.906;2023-08-01T10:49:32;6.05;;;1.65;;
14892;SDS011;7538;53.626;9.906;2023-08-01T10:52:00;4.90;;;1.58;;
14892;SDS011;7538;53.626;9.906;2023-08-01T10:54:27;2.83;;;2.00;;
14892;SDS011;7538;53.626;9.906;2023-08-01T10:56:58;2.95;;;1.40;;
14892;SDS011;7538;53.626;9.906;2023-08-01T10:59:27;1.60;;;1.27;;
14892;SDS011;7538;53.626;9.906;2023-08-01T11:01:58;1.75;;;1.38;;
14892;SDS011;7538;53.626;9.906;2023-08-01T11:04:26;1.80;;;1.30;;
14892;SDS011;7538;53.626;9.906;2023-08-01T11:06:53;3.80;;;1.40;;
14892;SDS011;7538;53.626;9.906;2023-08-01T11:09:22;2.50;;;1.20;;
14892;SDS011;7538;53.626;9.906;2023-08-01T11:11:50;2.35;;;1.50;;
14892;SDS011;7538;53.626;9.906;2023-08-01T11:14:20;1.92;;;1.10;;
14892;SDS011;7538;53.626;9.906;2023-08-01T11:16:48;3.05;;;1.40;;
14892;SDS011;7538;53.626;9.906;2023-08-01T11:19:19;5.13;;;1.60;;
14892;SDS011;7538;53.626;9.906;2023-08-01T11:21:47;2.00;;;1.30;;
14892;SDS011;7538;53.626;9.906;2023-08-01T11:24:14;1.65;;;1.38;;
14892;SDS011;7538;53.626;9.906;2023-08-01T11:26:42;2.72;;;1.30;;
14892;SDS011;7538;53.626;9.906;2023-08-01T11:29:10;3.38;;;1.20;;
14892;SDS011;7538;53.626;9.906;2023-08-01T11:31:38;4.40;;;3.53;;
14892;SDS011;7538;53.626;9.906;2023-08-01T11:34:06;2.20;;;1.75;;
14892;SDS011;7538;53.626;9.906;2023-08-01T11:36:34;1.80;;;1.48;;
14892;SDS011;7538;53.626;9.906;2023-08-01T11:39:02;2.22;;;1.60;;
14892;SDS011;7538;53.626;9.906;2023-08-01T11:41:29;1.92;;;1.35;;
14892;SDS011;7538;53.626;9.906;2023-08-01T11:44:00;2.20;;;1.80;;
14892;SDS011;7538;53.626;9.906;2023-08-01T11:46:30;2.15;;;1.08;;
14892;SDS011;7538;53.626;9.906;2023-08-01T11:49:02;1.20;;;0.82;;
14892;SDS011;7538;53.626;9.906;2023-08-01T11:51:38;1.00;;;0.90;;
14892;SDS011;7538;53.626;9.906;2023-08-01T11:54:06;1.35;;;0.77;;
14892;SDS011;7538;53.626;9.906;2023-08-01T11:56:36;1.52;;;0.90;;
14892;SDS011;7538;53.626;9.906;2023-08-01T11:59:10;8.80;;;6.18;;
14892;SDS011;7538;53.626;9.906;2023-08-01T12:01:38;40.92;;;24.35;;
14892;SDS011;7538;53.626;9.906;2023-08-01T12:04:06;6.97;;;3.75;;
14892;SDS011;7538;53.626;9.906;2023-08-01T12:06:33;20.45;;;7.40;;
14892;SDS011;7538;53.626;9.906;2023-08-01T12:09:05;2.42;;;1.05;;
14892;SDS011;7538;53.626;9.906;2023-08-01T12:11:34;2.17;;;1.35;;
14892;SDS011;7538;53.626;9.906;2023-08-01T12:14:01;2.55;;;1.00;;
14892;SDS011;7538;53.626;9.906;2023-08-01T12:16:28;1.70;;;0.90;;
14892;SDS011;7538;53.626;9.906;2023-08-01T12:18:55;3.65;;;1.92;;
14892;SDS011;7538;53.626;9.906;2023-08-01T12:21:24;1.50;;;1.33;;
14892;SDS011;7538;53.626;9.906;2023-08-01T12:23:51;2.63;;;1.90;;
14892;SDS011;7538;53.626;9.906;2023-08-01T12:26:17;4.82;;;1.30;;
14892;SDS011;7538;53.626;9.906;2023-08-01T12:28:44;2.63;;;1.33;;
14892;SDS011;7538;53.626;9.906;2023-08-01T12:31:15;2.00;;;1.20;;
14892;SDS011;7538;53.626;9.906;2023-08-01T12:33:43;1.40;;;1.30;;
14892;SDS011;7538;53.626;9.906;2023-08-01T12:36:10;3.80;;;1.30;;
14892;SDS011;7538;53.626;9.906;2023-08-01T12:38:38;2.35;;;1.45;;
14892;SDS011;7538;53.626;9.906;2023-08-01T12:41:05;2.08;;;1.30;;
14892;SDS011;7538;53.626;9.906;2023-08-01T12:43:32;2.15;;;1.40;;
14892;SDS011;7538;53.626;9.906;2023-08-01T12:45:59;1.38;;;1.20;;
14892;SDS011;7538;53.626;9.906;2023-08-01T12:48:26;1.33;;;1.13;;
14892;SDS011;7538;53.626;9.906;2023-08-01T12:50:53;1.80;;;1.30;;
14892;SDS011;7538;53.626;9.906;2023-08-01T12:53:21;2.65;;;1.30;;
14892;SDS011;7538;53.626;9.906;2023-08-01T12:55:50;3.05;;;1.67;;
14892;SDS011;7538;53.626;9.906;2023-08-01T12:58:17;2.80;;;1.63;;
14892;SDS011;7538;53.626;9.906;2023-08-01T13:00:44;2.17;;;1.20;;
14892;SDS011;7538;53.626;9.906;2023-08-01T13:03:12;1.33;;;1.17;;
14892;SDS011;7538;53.626;9.906;2023-08-01T13:05:39;1.48;;;1.17;;
14892;SDS011;7538;53.626;9.906;2023-08-01T13:08:08;2.30;;;1.20;;
14892;SDS011;7538;53.626;9.906;2023-08-01T13:10:36;1.92;;;1.13;;
14892;SDS011;7538;53.626;9.906;2023-08-01T13:13:06;1.40;;;1.13;;
14892;SDS011;7538;53.626;9.906;2023-08-01T13:15:33;2.28;;;1.30;;
14892;SDS011;7538;53.626;9.906;2023-08-01T13:17:59;1.20;;;0.93;;
14892;SDS011;7538;53.626;9.906;2023-08-01T13:20:26;18.35;;;12.27;;
14892;SDS011;7538;53.626;9.906;2023-08-01T13:22:53;1.67;;;1.15;;
14892;SDS011;7538;53.626;9.906;2023-08-01T13:25:20;4.25;;;2.13;;
14892;SDS011;7538;53.626;9.906;2023-08-01T13:27:47;2.20;;;1.52;;
14892;SDS011;7538;53.626;9.906;2023-08-01T13:30:15;2.10;;;1.45;;
14892;SDS011;7538;53.626;9.906;2023-08-01T13:32:43;1.17;;;1.00;;
14892;SDS011;7538;53.626;9.906;2023-08-01T13:38:23;1.40;;;1.17;;
14892;SDS011;7538;53.626;9.906;2023-08-01T13:40:50;2.33;;;1.27;;
14892;SDS011;7538;53.626;9.906;2023-08-01T13:43:16;2.80;;;1.58;;
14892;SDS011;7538;53.626;9.906;2023-08-01T13:45:45;1.73;;;1.35;;
14892;SDS011;7538;53.626;9.906;2023-08-01T13:48:11;1.42;;;1.20;;
14892;SDS011;7538;53.626;9.906;2023-08-01T13:50:38;1.40;;;1.23;;
14892;SDS011;7538;53.626;9.906;2023-08-01T13:53:05;2.10;;;1.40;;
14892;SDS011;7538;53.626;9.906;2023-08-01T13:55:35;1.70;;;1.30;;
14892;SDS011;7538;53.626;9.906;2023-08-01T13:58:02;3.58;;;1.20;;
14892;SDS011;7538;53.626;9.906;2023-08-01T14:00:28;2.60;;;1.20;;
14892;SDS011;7538;53.626;9.906;2023-08-01T14:02:57;2.45;;;1.63;;
14892;SDS011;7538;53.626;9.906;2023-08-01T14:05:24;2.45;;;1.20;;
14892;SDS011;7538;53.626;9.906;2023-08-01T14:07:51;3.22;;;1.30;;
14892;SDS011;7538;53.626;9.906;2023-08-01T14:10:18;2.45;;;1.38;;
14892;SDS011;7538;53.626;9.906;2023-08-01T14:12:46;1.52;;;1.00;;
14892;SDS011;7538;53.626;9.906;2023-08-01T14:15:13;3.08;;;1.10;;
14892;SDS011;7538;53.626;9.906;2023-08-01T14:17:40;1.73;;;1.00;;
14892;SDS011;7538;53.626;9.906;2023-08-01T14:20:08;2.17;;;1.05;;
14892;SDS011;7538;53.626;9.906;2023-08-01T14:22:36;1.25;;;0.80;;
14892;SDS011;7538;53.626;9.906;2023-08-01T14:25:03;1.98;;;1.13;;
14892;SDS011;7538;53.626;9.906;2023-08-01T14:27:33;2.05;;;0.95;;
14892;SDS011;7538;53.626;9.906;2023-08-01T14:30:18;1.88;;;1.35;;
14892;SDS011;7538;53.626;9.906;2023-08-01T14:32:45;1.70;;;1.23;;
14892;SDS011;7538;53.626;9.906;2023-08-01T14:35:13;3.30;;;1.15;;
14892;SDS011;7538;53.626;9.906;2023-08-01T14:37:40;1.70;;;0.88;;
14892;SDS011;7538;53.626;9.906;2023-08-01T14:40:10;1.90;;;1.00;;
14892;SDS011;7538;53.626;9.906;2023-08-01T14:42:37;2.22;;;1.45;;
14892;SDS011;7538;53.626;9.906;2023-08-01T14:45:04;2.80;;;1.30;;
14892;SDS011;7538;53.626;9.906;2023-08-01T14:47:32;1.13;;;0.93;;
14892;SDS011;7538;53.626;9.906;2023-08-01T14:49:59;2.28;;;1.00;;
14892;SDS011;7538;53.626;9.906;2023-08-01T14:52:27;2.92;;;1.30;;
14892;SDS011;7538;53.626;9.906;2023-08-01T14:54:54;2.90;;;1.10;;
14892;SDS011;7538;53.626;9.906;2023-08-01T14:57:21;2.40;;;1.33;;
14892;SDS011;7538;53.626;9.906;2023-08-01T14:59:48;1.33;;;1.10;;
14892;SDS011;7538;53.626;9.906;2023-08-01T15:02:15;1.35;;;1.20;;
14892;SDS011;7538;53.626;9.906;2023-08-01T15:04:42;1.63;;;1.10;;
14892;SDS011;7538;53.626;9.906;2023-08-01T15:07:08;2.80;;;1.20;;
14892;SDS011;7538;53.626;9.906;2023-08-01T15:09:37;3.97;;;1.30;;
14892;SDS011;7538;53.626;9.906;2023-08-01T15:12:04;1.75;;;1.45;;
14892;SDS011;7538;53.626;9.906;2023-08-01T15:14:31;2.20;;;1.38;;
14892;SDS011;7538;53.626;9.906;2023-08-01T15:16:58;2.20;;;1.40;;
14892;SDS011;7538;53.626;9.906;2023-08-01T15:19:25;2.30;;;1.45;;
14892;SDS011;7538;53.626;9.906;2023-08-01T15:21:52;3.90;;;1.30;;
14892;SDS011;7538;53.626;9.906;2023-08-01T15:24:19;2.58;;;1.33;;
14892;SDS011;7538;53.626;9.906;2023-08-01T15:26:47;2.95;;;1.40;;
14892;SDS011;7538;53.626;9.906;2023-08-01T15:29:14;2.50;;;1.40;;
14892;SDS011;7538;53.626;9.906;2023-08-01T15:31:41;3.42;;;1.92;;
14892;SDS011;7538;53.626;9.906;2023-08-01T15:34:08;3.67;;;1.75;;
14892;SDS011;7538;53.626;9.906;2023-08-01T15:36:35;2.55;;;1.55;;
14892;SDS011;7538;53.626;9.906;2023-08-01T15:39:02;4.40;;;1.42;;
14892;SDS011;7538;53.626;9.906;2023-08-01T15:41:28;2.60;;;1.50;;
14892;SDS011;7538;53.626;9.906;2023-08-01T15:43:57;3.65;;;1.90;;
14892;SDS011;7538;53.626;9.906;2023-08-01T15:46:23;2.75;;;1.50;;